Time;durP1;ratioP1;P1;durP2;ratioP2;P2;SDS_P1;SDS_P2;PMS_P1;PMS_P2;Temp;Humidity;BMP_temperature;BMP_pressure;BME280_temperature;BME280_humidity;BME280_pressure;Samples;Min_cycle;Max_cycle;Signal;HPM_P1;HPM_P2
2022/10/09 00:00:43;;;;;;;9.27;6.38;;;;;;;10.43;66.49;95165.63;5063929;28;20039;-73
2022/10/09 00:03:09;;;;;;;10.27;6.10;;;;;;;10.59;66.50;95192.09;5059338;28;20025;-73
2022/10/09 00:05:34;;;;;;;7.10;5.55;;;;;;;10.59;66.42;95188.69;5056510;28;20418;-73
2022/10/09 00:08:00;;;;;;;9.35;6.47;;;;;;;10.58;66.54;95200.81;5063024;28;20379;-73
2022/10/09 00:10:25;;;;;;;7.55;6.53;;;;;;;10.46;66.83;95193.97;5026649;28;20028;-73
2022/10/09 00:12:51;;;;;;;10.52;6.10;;;;;;;10.43;66.91;95191.59;5027903;28;20473;-73
2022/10/09 00:15:16;;;;;;;7.63;6.03;;;;;;;10.42;66.97;95187.34;5043368;28;20069;-73
2022/10/09 00:17:42;;;;;;;8.90;6.65;;;;;;;10.41;67.52;95188.28;5040761;28;20032;-73
2022/10/09 00:20:07;;;;;;;9.85;6.28;;;;;;;10.40;66.85;95177.09;5056989;28;20029;-73
2022/10/09 00:22:33;;;;;;;7.20;6.20;;;;;;;10.34;67.30;95179.34;5048735;28;20035;-73
2022/10/09 00:24:58;;;;;;;7.80;5.93;;;;;;;10.29;67.63;95177.91;5053289;28;20037;-74
2022/10/09 00:27:24;;;;;;;6.97;6.28;;;;;;;10.33;67.35;95175.06;5056878;28;20044;-73
2022/10/09 00:29:49;;;;;;;8.27;6.45;;;;;;;10.31;67.42;95174.34;5051934;28;20029;-73
2022/10/09 00:32:15;;;;;;;9.27;6.68;;;;;;;10.29;67.41;95172.69;5030180;28;20048;-73
2022/10/09 00:34:41;;;;;;;8.30;6.35;;;;;;;10.29;67.21;95159.72;5043682;28;20037;-73
2022/10/09 00:37:07;;;;;;;7.45;5.75;;;;;;;10.30;67.33;95181.31;5046443;28;20063;-73
2022/10/09 00:39:32;;;;;;;7.65;6.38;;;;;;;10.24;67.55;95164.41;5063443;28;20044;-73
2022/10/09 00:41:58;;;;;;;6.63;5.85;;;;;;;10.21;67.39;95164.63;5057355;28;20044;-73
2022/10/09 00:44:45;;;;;;;7.75;5.95;;;;;;;10.17;67.93;95163.22;5045151;28;20166;-73
2022/10/09 00:47:35;;;;;;;10.63;5.90;;;;;;;10.18;67.96;95154.50;5059689;28;20028;-73
2022/10/09 00:50:05;;;;;;;7.30;6.35;;;;;;;10.15;68.07;95159.09;5030046;28;20028;-73
2022/10/09 00:52:31;;;;;;;10.85;6.47;;;;;;;10.07;68.30;95147.50;5057481;28;20032;-73
2022/10/09 00:54:57;;;;;;;9.13;6.57;;;;;;;10.08;68.59;95148.31;5055153;28;20450;-74
2022/10/09 00:57:22;;;;;;;7.78;6.32;;;;;;;10.10;68.11;95141.25;5045670;28;20055;-73
2022/10/09 00:59:48;;;;;;;8.57;6.43;;;;;;;10.15;67.96;95151.31;5029945;28;20490;-73
2022/10/09 01:02:13;;;;;;;7.85;6.38;;;;;;;10.09;68.23;95144.00;5049432;28;20384;-73
2022/10/09 01:04:38;;;;;;;7.20;6.40;;;;;;;10.04;68.08;95147.75;5057573;28;20055;-73
2022/10/09 01:07:34;;;;;;;8.70;5.97;;;;;;;10.11;68.05;95142.91;5058393;28;20039;-73
2022/10/09 01:10:18;;;;;;;8.23;5.72;;;;;;;10.15;68.03;95140.91;5061521;28;20576;-73
2022/10/09 01:12:55;;;;;;;7.63;5.88;;;;;;;10.17;68.13;95141.59;5061574;28;20029;-73
2022/10/09 01:15:20;;;;;;;8.38;6.00;;;;;;;10.16;68.27;95133.00;5057655;28;20036;-73
2022/10/09 01:18:06;;;;;;;12.75;6.28;;;;;;;10.14;68.30;95136.66;5059603;28;20406;-73
2022/10/09 01:20:42;;;;;;;7.68;6.28;;;;;;;10.19;68.23;95142.31;5042440;28;20029;-73
2022/10/09 01:23:51;;;;;;;9.43;6.30;;;;;;;10.16;68.18;95135.59;5058953;28;20097;-73
2022/10/09 01:26:26;;;;;;;6.68;5.97;;;;;;;10.09;68.39;95144.81;5018668;28;20037;-73
2022/10/09 01:28:54;;;;;;;8.80;6.20;;;;;;;10.09;68.45;95144.81;5056751;28;20050;-73
2022/10/09 01:31:20;;;;;;;7.68;6.22;;;;;;;10.03;68.26;95145.28;5040282;28;20162;-73
2022/10/09 01:33:45;;;;;;;9.18;6.15;;;;;;;10.09;68.28;95144.00;5058294;28;20036;-73
2022/10/09 01:36:11;;;;;;;8.07;5.80;;;;;;;10.09;68.27;95150.00;5043545;28;20075;-73
2022/10/09 01:38:36;;;;;;;6.45;5.57;;;;;;;10.14;67.94;95141.84;5078101;28;20513;-73
2022/10/09 01:41:02;;;;;;;7.50;5.47;;;;;;;10.12;67.56;95144.56;5042877;28;20453;-73
2022/10/09 01:43:27;;;;;;;7.25;5.18;;;;;;;10.10;68.04;95151.63;5046697;28;20036;-73
2022/10/09 01:46:15;;;;;;;9.15;5.82;;;;;;;9.97;67.67;95125.81;5042208;28;20039;-73
2022/10/09 01:48:41;;;;;;;7.55;5.55;;;;;;;10.02;68.10;95148.78;5036227;28;20039;-73
2022/10/09 01:51:06;;;;;;;8.63;5.63;;;;;;;9.81;68.33;95135.69;5042303;28;20044;-73
2022/10/09 01:53:32;;;;;;;7.05;5.70;;;;;;;9.92;68.36;95156.47;5046455;28;20590;-73
2022/10/09 01:56:03;;;;;;;7.95;5.93;;;;;;;9.91;68.32;95141.00;5046860;28;20437;-73
2022/10/09 01:58:32;;;;;;;6.97;5.30;;;;;;;9.92;68.65;95156.47;5060406;28;20036;-73
2022/10/09 02:01:05;;;;;;;8.00;5.47;;;;;;;9.94;68.56;95151.97;5067978;28;20065;-73
2022/10/09 02:03:30;;;;;;;6.65;5.00;;;;;;;9.94;68.44;95156.31;5060264;28;20119;-73
2022/10/09 02:05:56;;;;;;;7.30;5.95;;;;;;;9.95;68.89;95152.81;5048447;28;20074;-73
2022/10/09 02:08:21;;;;;;;7.43;5.53;;;;;;;9.92;68.49;95153.00;5061612;28;20048;-73
2022/10/09 02:10:47;;;;;;;7.82;5.70;;;;;;;9.90;68.42;95153.16;5032168;28;20028;-73
2022/10/09 02:13:13;;;;;;;7.05;5.45;;;;;;;9.91;68.27;95159.97;5037104;28;20486;-73
2022/10/09 02:15:52;;;;;;;11.80;5.50;;;;;;;9.88;68.35;95167.16;5060316;28;20047;-73
2022/10/09 02:18:25;;;;;;;8.68;6.50;;;;;;;9.75;69.18;95168.09;5033575;28;20058;-74
2022/10/09 02:20:52;;;;;;;9.15;6.30;;;;;;;9.71;69.42;95166.66;5041228;28;20028;-73
2022/10/09 02:23:18;;;;;;;9.25;6.88;;;;;;;9.60;69.76;95169.22;5044353;28;20453;-73
2022/10/09 02:25:43;;;;;;;9.35;7.43;;;;;;;9.52;70.41;95167.16;5062326;28;20039;-73
2022/10/09 02:28:09;;;;;;;9.65;7.15;;;;;;;9.56;70.22;95178.16;5031357;28;20460;-73
2022/10/09 02:31:14;;;;;;;7.88;5.97;;;;;;;9.30;70.58;95167.91;5044179;28;20025;-73
2022/10/09 02:33:40;;;;;;;8.02;5.97;;;;;;;9.28;69.91;95180.16;5057455;28;20502;-73
2022/10/09 02:36:05;;;;;;;9.88;5.43;;;;;;;9.20;70.14;95185.06;5060011;28;20060;-73
2022/10/09 02:38:31;;;;;;;6.82;5.85;;;;;;;9.27;70.26;95183.66;5059120;28;20039;-73
2022/10/09 02:40:58;;;;;;;7.88;5.50;;;;;;;9.28;70.30;95180.16;5060412;28;20492;-73
2022/10/09 02:43:23;;;;;;;10.07;5.68;;;;;;;9.31;70.53;95179.94;5047256;28;20445;-73
2022/10/09 02:45:49;;;;;;;8.88;5.95;;;;;;;9.05;70.01;95160.22;5065672;28;20043;-73
2022/10/09 02:48:14;;;;;;;6.63;5.80;;;;;;;9.02;70.34;95181.19;5062733;28;20055;-73
2022/10/09 02:50:40;;;;;;;10.43;5.68;;;;;;;9.00;70.39;95180.44;5065392;28;20514;-73
2022/10/09 02:53:05;;;;;;;7.43;5.82;;;;;;;8.79;70.96;95183.63;5062110;28;20024;-73
2022/10/09 02:55:30;;;;;;;9.63;6.55;;;;;;;8.77;72.00;95180.31;5059800;28;20109;-73
2022/10/09 02:57:56;;;;;;;9.48;5.90;;;;;;;8.75;71.72;95184.78;5060206;28;20033;-73
2022/10/09 03:00:21;;;;;;;9.98;6.60;;;;;;;8.72;72.12;95188.41;5044061;28;20036;-73
2022/10/09 03:02:47;;;;;;;7.47;5.72;;;;;;;8.63;72.17;95178.69;5060840;28;20031;-73
2022/10/09 03:05:12;;;;;;;7.30;5.70;;;;;;;8.58;72.05;95193.72;5048852;28;20568;-73
2022/10/09 03:07:38;;;;;;;7.82;5.60;;;;;;;8.57;71.94;95188.63;5051192;28;20029;-73
2022/10/09 03:10:03;;;;;;;7.53;5.50;;;;;;;8.52;72.01;95190.72;5069256;28;20032;-73
2022/10/09 03:12:29;;;;;;;6.70;5.38;;;;;;;8.47;71.75;95186.69;5069173;28;20033;-73
2022/10/09 03:14:54;;;;;;;7.55;5.57;;;;;;;8.53;71.71;95187.22;5069251;28;20414;-73
2022/10/09 03:17:20;;;;;;;9.77;5.47;;;;;;;8.35;72.21;95164.19;5045145;28;20029;-73
2022/10/09 03:19:45;;;;;;;7.40;5.70;;;;;;;8.55;72.40;95195.69;5051337;28;20265;-73
2022/10/09 03:22:10;;;;;;;6.97;5.47;;;;;;;8.64;72.52;95189.88;5068759;28;20043;-73
2022/10/09 03:24:36;;;;;;;6.68;5.57;;;;;;;8.58;72.19;95190.28;5054537;28;20402;-73
2022/10/09 03:27:01;;;;;;;8.63;6.47;;;;;;;8.71;72.02;95183.31;5049062;28;20033;-73
2022/10/09 03:29:27;;;;;;;7.15;5.70;;;;;;;8.71;72.33;95201.47;5053600;28;20024;-73
2022/10/09 03:31:52;;;;;;;8.40;6.07;;;;;;;8.66;72.64;95195.75;5054301;28;20032;-73
2022/10/09 03:34:18;;;;;;;9.23;7.00;;;;;;;8.71;72.86;95196.28;5036556;28;20037;-73
2022/10/09 03:36:43;;;;;;;8.85;6.78;;;;;;;8.74;72.80;95196.06;5055358;28;20514;-73
2022/10/09 03:39:09;;;;;;;8.35;7.18;;;;;;;8.58;73.29;95205.81;5052507;28;20040;-73
2022/10/09 03:41:34;;;;;;;9.35;7.28;;;;;;;8.51;74.01;95210.59;5068232;28;20028;-73
2022/10/09 03:43:59;;;;;;;9.38;7.38;;;;;;;8.55;74.46;95211.22;5044437;28;20032;-73
2022/10/09 03:46:25;;;;;;;10.95;7.40;;;;;;;8.54;73.68;95209.56;5067128;28;20091;-73
2022/10/09 03:48:50;;;;;;;9.48;6.95;;;;;;;8.56;73.38;95203.34;5068789;28;20040;-73
2022/10/09 03:51:16;;;;;;;9.85;6.43;;;;;;;8.48;73.41;95227.19;5071754;28;20033;-73
2022/10/09 03:53:41;;;;;;;8.95;7.10;;;;;;;8.40;73.77;95215.69;5065721;28;20028;-73
2022/10/09 03:56:07;;;;;;;9.23;6.57;;;;;;;8.32;73.97;95226.53;5071639;28;20032;-73
2022/10/09 03:58:32;;;;;;;8.38;6.45;;;;;;;8.24;73.69;95218.44;5053984;28;20499;-73
2022/10/09 04:00:58;;;;;;;8.70;6.50;;;;;;;8.12;73.47;95211.50;5071485;28;20029;-73
2022/10/09 04:03:23;;;;;;;8.27;6.43;;;;;;;8.09;74.02;95229.81;5065639;28;20028;-73
2022/10/09 04:05:48;;;;;;;8.32;6.97;;;;;;;7.95;74.01;95218.63;5070119;28;20037;-73
2022/10/09 04:08:14;;;;;;;8.55;6.50;;;;;;;7.93;74.29;95217.88;5053283;28;20032;-73
2022/10/09 04:10:39;;;;;;;8.48;6.80;;;;;;;7.89;74.41;95224.22;5038881;28;20041;-73
2022/10/09 04:13:05;;;;;;;7.72;6.35;;;;;;;7.94;74.32;95216.13;5052100;28;20061;-73
2022/10/09 04:15:30;;;;;;;8.02;6.00;;;;;;;7.98;73.72;95215.84;5049356;28;20410;-73
2022/10/09 04:17:56;;;;;;;8.70;6.25;;;;;;;7.89;72.67;95218.22;5053508;28;20471;-73
2022/10/09 04:20:22;;;;;;;8.35;6.55;;;;;;;7.92;72.64;95218.00;5049786;28;20041;-73
2022/10/09 04:22:47;;;;;;;9.15;7.78;;;;;;;7.67;73.35;95217.03;5066570;28;20025;-73
2022/10/09 04:25:13;;;;;;;9.15;7.25;;;;;;;7.65;74.03;95218.88;5046461;28;20044;-73
2022/10/09 04:27:38;;;;;;;10.07;7.15;;;;;;;7.64;74.12;95222.41;5070005;28;20038;-73
2022/10/09 04:30:04;;;;;;;9.38;7.20;;;;;;;7.72;74.29;95216.72;5063846;28;20037;-73
2022/10/09 04:32:30;;;;;;;10.60;7.53;;;;;;;7.69;74.55;95224.66;5069806;28;20028;-73
2022/10/09 04:34:55;;;;;;;8.85;7.07;;;;;;;7.61;74.62;95214.84;5042464;28;20558;-73
2022/10/09 04:37:20;;;;;;;9.95;7.57;;;;;;;7.68;75.20;95235.94;5060854;28;20067;-73
2022/10/09 04:39:46;;;;;;;9.75;7.80;;;;;;;7.65;75.27;95230.97;5061992;28;20041;-73
2022/10/09 04:42:11;;;;;;;8.85;7.18;;;;;;;7.55;74.43;95230.72;5058632;28;20097;-73
2022/10/09 04:44:37;;;;;;;10.05;7.22;;;;;;;7.57;74.12;95223.69;5066700;28;20037;-73
2022/10/09 04:47:02;;;;;;;9.15;7.63;;;;;;;7.58;74.55;95227.97;5038377;28;20102;-73
2022/10/09 04:49:28;;;;;;;10.52;9.05;;;;;;;7.58;75.14;95226.22;5054553;28;20037;-73
2022/10/09 04:51:53;;;;;;;9.93;7.28;;;;;;;7.70;76.08;95228.94;5043020;28;20520;-73
2022/10/09 04:54:19;;;;;;;13.23;9.48;;;;;;;7.65;75.70;95225.81;5036282;28;20032;-73
2022/10/09 04:56:44;;;;;;;10.35;8.65;;;;;;;7.70;75.44;95231.50;5066273;28;20496;-73
2022/10/09 04:59:09;;;;;;;14.65;8.43;;;;;;;7.68;75.48;95235.94;5064608;28;20032;-73
2022/10/09 05:01:35;;;;;;;10.27;8.20;;;;;;;7.75;74.88;95243.22;5039937;28;20090;-73
2022/10/09 05:04:00;;;;;;;11.02;8.27;;;;;;;7.77;74.79;95238.78;5060717;28;20029;-73
2022/10/09 05:06:26;;;;;;;10.90;8.07;;;;;;;7.76;75.05;95238.88;5056547;28;20040;-73
2022/10/09 05:08:52;;;;;;;13.45;9.50;;;;;;;7.64;76.13;95235.31;5061400;28;20028;-73
2022/10/09 05:11:20;;;;;;;12.43;10.32;;;;;;;7.74;76.52;95248.47;5064792;28;20048;-73
2022/10/09 05:13:50;;;;;;;13.23;10.30;;;;;;;7.73;76.01;95245.06;5068261;28;20032;-74
2022/10/09 05:16:17;;;;;;;13.77;10.77;;;;;;;7.87;76.00;95257.09;5050860;28;20048;-78
2022/10/09 05:18:46;;;;;;;12.10;9.70;;;;;;;7.89;76.48;95252.66;5052133;28;20028;-74
2022/10/09 05:21:12;;;;;;;13.90;9.20;;;;;;;7.88;76.14;95258.75;5072807;28;20463;-73
2022/10/09 05:23:38;;;;;;;10.95;9.48;;;;;;;7.91;75.87;95255.13;5074571;28;20037;-73
2022/10/09 05:26:08;;;;;;;9.90;8.45;;;;;;;8.01;75.40;95254.44;5069256;28;20048;-72
2022/10/09 05:28:34;;;;;;;8.85;7.35;;;;;;;8.07;75.20;95254.03;5066059;28;20062;-73
2022/10/09 05:30:59;;;;;;;10.20;7.68;;;;;;;8.07;75.27;95263.56;5054674;28;20040;-72
2022/10/09 05:33:25;;;;;;;8.77;7.05;;;;;;;8.00;75.72;95257.97;5055054;28;20398;-72
2022/10/09 05:35:57;;;;;;;9.50;7.57;;;;;;;7.91;75.83;95253.41;5051835;28;20649;-71
2022/10/09 05:38:23;;;;;;;9.38;7.43;;;;;;;7.96;75.71;95259.06;5048476;28;20028;-72
2022/10/09 05:41:04;;;;;;;12.00;8.60;;;;;;;7.87;76.15;95264.88;5069960;28;20056;-71
2022/10/09 05:43:35;;;;;;;11.30;8.50;;;;;;;7.95;76.12;95270.38;5069546;28;20078;-73
2022/10/09 05:46:12;;;;;;;14.30;10.40;;;;;;;7.97;76.36;95252.16;5049050;28;20502;-72
2022/10/09 05:48:38;;;;;;;11.77;9.05;;;;;;;8.12;75.98;95271.84;5062227;28;20787;-72
2022/10/09 05:51:14;;;;;;;11.32;9.02;;;;;;;8.20;75.97;95263.59;5051613;28;20037;-73
2022/10/09 05:53:40;;;;;;;13.82;9.65;;;;;;;8.31;75.76;95268.88;5065969;28;20029;-72
2022/10/09 05:56:13;;;;;;;10.77;9.40;;;;;;;8.68;75.53;95269.00;5064130;28;20039;-72
2022/10/09 05:58:39;;;;;;;11.98;8.73;;;;;;;9.44;73.13;95270.63;5071115;28;20029;-72
2022/10/09 06:01:04;;;;;;;9.75;7.72;;;;;;;10.10;70.27;95265.84;5067941;28;20043;-73
2022/10/09 06:03:30;;;;;;;10.15;8.35;;;;;;;10.73;68.60;95276.78;5068700;28;20048;-73
2022/10/09 06:06:00;;;;;;;8.38;7.43;;;;;;;11.24;66.07;95278.06;5070689;28;20515;-73
2022/10/09 06:08:26;;;;;;;9.33;7.20;;;;;;;11.42;65.22;95261.00;5037106;28;20581;-73
2022/10/09 06:10:51;;;;;;;10.95;8.43;;;;;;;11.56;65.03;95285.94;5070357;28;20287;-73
2022/10/09 06:13:17;;;;;;;10.55;8.70;;;;;;;11.71;64.81;95289.13;5070392;28;20085;-73
2022/10/09 06:15:52;;;;;;;11.05;8.63;;;;;;;12.10;63.80;95284.28;5070093;28;20035;-72
2022/10/09 06:18:18;;;;;;;11.63;9.18;;;;;;;12.77;62.02;95289.13;5053559;28;20615;-73
2022/10/09 06:20:59;;;;;;;13.27;7.53;;;;;;;13.18;60.70;95288.22;5069976;28;20028;-73
2022/10/09 06:23:25;;;;;;;11.30;8.38;;;;;;;13.62;59.28;95295.78;5053882;28;20028;-73
2022/10/09 06:26:03;;;;;;;8.05;7.05;;;;;;;14.17;57.71;95297.94;5053059;28;20033;-72
2022/10/09 06:28:29;;;;;;;9.20;7.63;;;;;;;14.63;56.29;95301.66;5053594;28;20063;-73
2022/10/09 06:31:00;;;;;;;9.20;7.15;;;;;;;15.04;54.73;95294.41;5070147;28;20103;-73
2022/10/09 06:33:31;;;;;;;12.05;8.30;;;;;;;15.52;53.32;95302.06;5069913;28;20028;-73
2022/10/09 06:36:19;;;;;;;10.55;7.68;;;;;;;16.17;51.40;95299.34;5055620;28;20481;-74
2022/10/09 06:38:44;;;;;;;9.63;7.43;;;;;;;16.29;51.23;95298.13;5072206;28;20025;-73
2022/10/09 06:41:14;;;;;;;9.55;6.65;;;;;;;17.28;48.77;95301.50;5071671;28;20032;-73
2022/10/09 06:43:40;;;;;;;10.73;7.80;;;;;;;17.50;47.78;95302.75;5039200;28;20115;-73
2022/10/09 06:46:07;;;;;;;9.40;7.63;;;;;;;17.55;47.41;95308.34;5054996;28;20116;-73
2022/10/09 06:48:33;;;;;;;11.20;7.55;;;;;;;17.83;47.00;95311.63;5072013;28;20036;-73
2022/10/09 06:51:12;;;;;;;10.27;7.43;;;;;;;17.97;46.20;95313.63;5071706;28;20051;-73
2022/10/09 06:53:39;;;;;;;9.30;7.22;;;;;;;18.07;46.68;95314.28;5071975;28;20029;-74
2022/10/09 06:56:04;;;;;;;10.23;7.22;;;;;;;18.44;45.60;95309.56;5038438;28;20033;-73
2022/10/09 06:58:30;;;;;;;10.65;7.55;;;;;;;18.72;44.34;95302.16;5055153;28;20055;-73
2022/10/09 07:01:16;;;;;;;9.90;7.20;;;;;;;18.92;44.44;95308.78;5054883;28;20082;-73
2022/10/09 07:03:42;;;;;;;8.38;7.32;;;;;;;18.97;43.86;95297.75;5040200;28;20075;-73
2022/10/09 07:06:10;;;;;;;9.20;7.05;;;;;;;19.37;43.08;95296.03;5054864;28;20028;-73
2022/10/09 07:08:35;;;;;;;10.40;7.55;;;;;;;19.41;42.22;95286.78;5055160;28;20456;-73
2022/10/09 07:11:12;;;;;;;15.15;8.20;;;;;;;19.72;42.07;95300.03;5071351;28;20037;-73
2022/10/09 07:13:38;;;;;;;9.50;7.68;;;;;;;19.59;42.97;95295.28;5054889;28;20035;-73
2022/10/09 07:16:03;;;;;;;12.55;8.57;;;;;;;19.46;42.70;95299.44;5054678;28;20043;-73
2022/10/09 07:18:31;;;;;;;9.95;8.18;;;;;;;19.62;42.72;95302.84;5071430;28;20032;-73
2022/10/09 07:20:58;;;;;;;12.07;8.02;;;;;;;19.59;42.33;95300.56;5054652;28;20040;-73
2022/10/09 07:23:23;;;;;;;14.50;8.60;;;;;;;19.17;43.37;95300.84;5054841;28;20031;-73
2022/10/09 07:25:49;;;;;;;10.00;8.63;;;;;;;19.17;43.78;95300.84;5072537;28;20414;-73
2022/10/09 07:28:14;;;;;;;9.93;8.68;;;;;;;19.40;42.67;95303.59;5070961;28;20513;-74
2022/10/09 07:30:40;;;;;;;11.93;9.32;;;;;;;19.48;42.18;95313.28;5037729;28;20033;-73
2022/10/09 07:33:05;;;;;;;13.32;8.45;;;;;;;19.55;43.12;95308.97;5072386;28;20375;-73
2022/10/09 07:35:31;;;;;;;11.00;8.20;;;;;;;19.52;42.79;95311.94;5071968;28;20036;-73
2022/10/09 07:37:56;;;;;;;10.93;7.63;;;;;;;19.62;43.05;95318.66;5071010;28;20097;-73
2022/10/09 07:40:22;;;;;;;14.30;9.90;;;;;;;19.69;42.63;95315.34;5053976;28;20490;-73
2022/10/09 07:42:47;;;;;;;14.93;8.93;;;;;;;19.67;42.33;95318.19;5036442;28;20024;-73
2022/10/09 07:45:13;;;;;;;12.98;7.70;;;;;;;19.66;42.90;95315.72;5071248;28;20021;-73
2022/10/09 07:47:38;;;;;;;8.80;7.03;;;;;;;19.48;42.99;95314.09;5070740;28;20044;-73
2022/10/09 07:50:04;;;;;;;9.43;7.50;;;;;;;19.58;42.88;95322.59;5070484;28;20041;-73
2022/10/09 07:52:30;;;;;;;9.27;7.43;;;;;;;19.53;43.62;95311.78;5070586;28;20032;-73
2022/10/09 07:54:55;;;;;;;14.13;7.47;;;;;;;19.53;43.73;95317.06;5052924;28;20036;-71
2022/10/09 07:57:21;;;;;;;13.20;7.40;;;;;;;19.32;43.39;95320.22;5069627;28;20457;-71
2022/10/09 07:59:46;;;;;;;9.23;6.90;;;;;;;19.47;42.58;95322.16;5070821;28;20025;-74
2022/10/09 08:02:12;;;;;;;11.27;6.88;;;;;;;19.37;42.82;95317.09;5068821;28;20032;-74
2022/10/09 08:04:37;;;;;;;9.65;6.65;;;;;;;19.40;43.09;95316.75;5069865;28;20037;-73
2022/10/09 08:07:02;;;;;;;9.38;6.60;;;;;;;19.51;42.74;95319.03;5069812;28;20036;-73
2022/10/09 08:09:28;;;;;;;10.05;7.00;;;;;;;19.57;43.17;95313.06;5070159;28;20036;-73
2022/10/09 08:11:54;;;;;;;11.45;7.10;;;;;;;19.45;42.79;95314.44;5070784;28;20384;-74
2022/10/09 08:14:19;;;;;;;9.77;7.47;;;;;;;19.24;43.47;95309.72;5070818;28;20037;-74
2022/10/09 08:16:45;;;;;;;9.05;7.10;;;;;;;19.08;43.87;95318.44;5069978;28;20494;-73
2022/10/09 08:19:10;;;;;;;8.68;7.35;;;;;;;19.11;44.52;95310.25;5070132;28;20039;-73
2022/10/09 08:21:36;;;;;;;9.57;7.35;;;;;;;18.89;43.98;95277.53;5053394;28;20036;-74
2022/10/09 08:24:01;;;;;;;12.25;8.25;;;;;;;19.02;44.43;95313.84;5071633;28;20399;-73
2022/10/09 08:26:27;;;;;;;11.30;8.23;;;;;;;19.06;44.64;95298.56;5071031;28;20047;-73
2022/10/09 08:28:55;;;;;;;12.02;7.53;;;;;;;19.17;45.06;95306.13;5036824;28;20028;-74
2022/10/09 08:31:21;;;;;;;12.02;7.57;;;;;;;19.17;44.78;95300.84;5069855;28;20034;-74
2022/10/09 08:33:46;;;;;;;10.95;7.07;;;;;;;19.11;44.40;95310.25;5070093;28;20399;-73
2022/10/09 08:36:15;;;;;;;9.30;7.20;;;;;;;19.08;45.66;95307.91;5053017;28;20057;-73
2022/10/09 08:38:41;;;;;;;9.05;7.75;;;;;;;19.12;44.74;95306.63;5053805;28;20033;-73
2022/10/09 08:41:15;;;;;;;10.15;7.50;;;;;;;19.13;45.25;95299.53;5036425;28;20090;-73
2022/10/09 08:43:45;;;;;;;10.07;7.80;;;;;;;19.30;45.36;95301.13;5053186;28;20036;-73
2022/10/09 08:46:37;;;;;;;9.32;7.60;;;;;;;19.34;45.82;95299.00;5053130;28;20029;-73
2022/10/09 08:49:02;;;;;;;9.13;6.90;;;;;;;19.31;45.36;95291.44;5053251;28;20044;-74
2022/10/09 08:51:31;;;;;;;8.48;6.60;;;;;;;19.33;45.49;95290.25;5052951;28;20028;-73
2022/10/09 08:54:11;;;;;;;14.07;8.45;;;;;;;19.34;45.60;95291.09;5053340;28;20036;-74
2022/10/09 08:56:37;;;;;;;12.90;8.85;;;;;;;19.36;45.59;95284.66;5069351;28;20033;-74
2022/10/09 08:59:02;;;;;;;15.25;9.05;;;;;;;19.43;45.64;95295.34;5069750;28;20044;-73
2022/10/09 09:01:33;;;;;;;8.35;6.78;;;;;;;19.40;46.25;95282.50;5052904;28;20476;-74
2022/10/09 09:04:08;;;;;;;11.30;6.20;;;;;;;19.45;45.50;95287.28;5069705;28;20055;-73
2022/10/09 09:06:36;;;;;;;6.45;5.78;;;;;;;19.50;45.60;95280.50;5070648;28;20481;-74
2022/10/09 09:09:29;;;;;;;7.70;6.07;;;;;;;19.52;45.46;95273.22;5069595;28;20119;-73
2022/10/09 09:12:14;;;;;;;10.95;8.05;;;;;;;19.57;45.33;95281.44;5070521;28;20032;-73
2022/10/09 09:14:51;;;;;;;24.15;19.15;;;;;;;19.57;45.71;95270.91;5061471;28;20033;-73
2022/10/09 09:17:38;;;;;;;13.95;10.50;;;;;;;19.59;46.07;95276.03;5050904;28;20036;-74
2022/10/09 09:20:15;;;;;;;9.52;7.03;;;;;;;19.65;45.26;95272.69;5050604;28;20033;-72
2022/10/09 09:22:44;;;;;;;10.18;7.13;;;;;;;19.71;45.39;95273.84;5050758;28;20037;-72
2022/10/09 09:25:22;;;;;;;8.25;6.00;;;;;;;19.78;45.17;95274.78;5032483;28;20051;-72
2022/10/09 09:27:48;;;;;;;12.13;5.88;;;;;;;19.85;44.43;95273.13;5051456;28;20487;-72
2022/10/09 09:30:22;;;;;;;9.73;5.55;;;;;;;19.92;44.68;95263.53;5066266;28;20035;-72
2022/10/09 09:33:02;;;;;;;7.18;5.03;;;;;;;19.93;44.21;95270.44;5032512;28;20086;-72
2022/10/09 09:35:45;;;;;;;6.97;5.47;;;;;;;19.98;44.78;95275.19;5027723;28;20494;-72
2022/10/09 09:38:12;;;;;;;8.98;4.88;;;;;;;20.07;44.85;95271.50;5054469;28;20051;-72
2022/10/09 09:40:37;;;;;;;7.57;4.88;;;;;;;20.11;44.84;95270.16;5069113;28;20025;-72
2022/10/09 09:43:04;;;;;;;8.57;5.03;;;;;;;20.17;44.24;95271.28;5052391;28;20101;-72
2022/10/09 09:45:30;;;;;;;10.00;5.22;;;;;;;20.16;43.81;95261.72;5022811;28;20037;-72
2022/10/09 09:48:20;;;;;;;7.65;5.00;;;;;;;20.13;43.94;95265.53;5044955;28;20027;-73
2022/10/09 09:50:46;;;;;;;7.75;5.00;;;;;;;20.22;44.11;95268.94;5069436;28;20035;-73
2022/10/09 09:53:31;;;;;;;11.90;5.00;;;;;;;20.25;44.42;95266.78;5052173;28;20020;-73
2022/10/09 09:55:56;;;;;;;7.05;5.22;;;;;;;20.21;44.89;95260.19;5069711;28;20044;-74
2022/10/09 09:58:22;;;;;;;8.13;4.93;;;;;;;20.30;43.23;95272.34;5045247;28;20033;-73
2022/10/09 10:00:55;;;;;;;6.38;4.63;;;;;;;20.24;43.69;95253.75;5057619;28;20032;-73
2022/10/09 10:03:21;;;;;;;8.13;5.55;;;;;;;20.34;43.49;95271.97;5068650;28;20071;-73
2022/10/09 10:05:46;;;;;;;8.98;5.38;;;;;;;20.41;43.20;95267.66;5039604;28;20037;-73
2022/10/09 10:08:32;;;;;;;6.72;4.80;;;;;;;20.48;43.80;95264.13;5052713;28;20040;-73
2022/10/09 10:11:00;;;;;;;7.72;4.80;;;;;;;20.49;43.32;95255.22;5057477;28;20138;-72
2022/10/09 10:13:44;;;;;;;6.78;4.35;;;;;;;20.64;44.32;95272.94;5055601;28;20032;-73
2022/10/09 10:16:19;;;;;;;6.38;4.97;;;;;;;20.66;42.76;95270.94;5052391;28;20033;-73
2022/10/09 10:18:45;;;;;;;8.05;4.97;;;;;;;20.65;42.80;95269.31;5052674;28;20078;-73
2022/10/09 10:21:12;;;;;;;6.50;4.65;;;;;;;20.64;42.87;95267.66;5052298;28;20033;-73
2022/10/09 10:24:02;;;;;;;7.45;4.45;;;;;;;20.68;43.29;95264.50;5052507;28;20029;-73
2022/10/09 10:26:40;;;;;;;6.90;4.53;;;;;;;20.79;42.18;95257.97;5052104;28;20053;-73
2022/10/09 10:29:27;;;;;;;5.85;4.60;;;;;;;20.74;42.63;95262.94;5036136;28;20055;-73
2022/10/09 10:32:20;;;;;;;7.18;4.85;;;;;;;20.74;42.72;95266.41;5035441;28;20039;-73
2022/10/09 10:34:56;;;;;;;5.03;4.20;;;;;;;20.74;42.31;95266.41;5053381;28;20043;-73
2022/10/09 10:37:39;;;;;;;5.60;4.05;;;;;;;20.78;41.52;95261.59;5052044;28;20545;-73
2022/10/09 10:40:13;;;;;;;10.10;3.95;;;;;;;20.83;42.00;95259.22;5035388;28;20346;-73
2022/10/09 10:42:50;;;;;;;7.90;4.38;;;;;;;20.83;41.87;95261.06;5052082;28;20107;-73
2022/10/09 10:45:19;;;;;;;6.25;4.18;;;;;;;20.88;42.38;95248.13;5051801;28;20029;-73
2022/10/09 10:47:47;;;;;;;5.90;4.30;;;;;;;20.98;41.81;95249.53;5053040;28;20033;-73
2022/10/09 10:50:13;;;;;;;7.63;4.38;;;;;;;21.00;41.70;95240.59;5051738;28;20048;-73
2022/10/09 10:53:03;;;;;;;5.53;4.10;;;;;;;21.09;40.86;95244.78;5053183;28;20103;-73
2022/10/09 10:55:53;;;;;;;7.32;4.07;;;;;;;21.13;41.29;95243.44;5051754;28;20028;-73
2022/10/09 10:58:33;;;;;;;6.57;4.13;;;;;;;21.14;39.85;95232.66;5037957;28;20021;-73
2022/10/09 11:01:01;;;;;;;4.55;3.80;;;;;;;21.21;40.39;95230.13;5052836;28;20033;-73
2022/10/09 11:03:42;;;;;;;4.43;3.70;;;;;;;21.24;39.58;95236.88;5051641;28;20040;-73
2022/10/09 11:06:11;;;;;;;;;;;;;;;21.25;40.09;95228.75;5035256;28;20426;-73
2022/10/09 11:08:55;;;;;;;5.13;3.78;;;;;;;21.26;40.20;95214.56;5051630;28;19920;-73
2022/10/09 11:11:32;;;;;;;5.90;3.70;;;;;;;21.30;39.61;95202.59;5034609;28;20459;-73
2022/10/09 11:14:02;;;;;;;6.93;3.90;;;;;;;21.35;39.63;95208.16;5051757;28;20581;-73
2022/10/09 11:16:34;;;;;;;7.10;4.07;;;;;;;21.31;38.53;95208.69;5051261;28;20048;-73
2022/10/09 11:19:03;;;;;;;7.35;3.88;;;;;;;21.32;38.30;95211.19;5050561;28;20033;-73
2022/10/09 11:21:52;;;;;;;5.88;3.60;;;;;;;21.23;37.39;95208.81;5052380;28;20116;-73
2022/10/09 11:24:48;;;;;;;7.00;3.72;;;;;;;21.31;37.85;95203.41;5034502;28;20041;-73
2022/10/09 11:27:16;;;;;;;7.15;3.72;;;;;;;21.35;38.03;95197.59;5034302;28;20037;-73
2022/10/09 11:29:59;;;;;;;5.28;3.47;;;;;;;21.38;38.01;95197.25;5051031;28;20619;-73
2022/10/09 11:32:52;;;;;;;5.07;3.60;;;;;;;21.42;37.65;95193.25;5052291;28;20104;-73
2022/10/09 11:35:39;;;;;;;6.85;3.58;;;;;;;21.40;36.94;95194.44;5047253;28;20127;-73
2022/10/09 11:38:06;;;;;;;5.07;3.30;;;;;;;21.42;36.64;95177.41;5053199;28;20041;-73
2022/10/09 11:40:37;;;;;;;4.63;3.42;;;;;;;21.55;36.83;95184.66;5050720;28;20036;-73
2022/10/09 11:43:31;;;;;;;4.53;3.45;;;;;;;21.58;35.90;95183.47;5050750;28;20107;-73
2022/10/09 11:45:56;;;;;;;6.97;4.03;;;;;;;21.54;36.21;95180.38;5032341;28;20427;-73